createdAt,value
2023-02-18T00:00:23.635Z,96135.66
2023-02-18T00:02:52.533Z,96138.56
2023-02-18T00:05:19.458Z,96136.22
2023-02-18T00:07:46.052Z,96136.19
2023-02-18T00:10:15.415Z,96141.31
2023-02-18T00:12:42.490Z,96130.41
2023-02-18T00:15:09.734Z,96129.06
2023-02-18T00:17:36.704Z,96113.56
2023-02-18T00:20:04.880Z,96120.31
2023-02-18T00:22:31.410Z,96113.53
2023-02-18T00:24:57.949Z,96102.66
2023-02-18T00:27:24.479Z,96104.81
2023-02-18T00:29:51.123Z,96093.34
2023-02-18T00:32:17.704Z,96101.50
2023-02-18T00:34:44.228Z,96090.94
2023-02-18T00:37:10.807Z,96086.97
2023-02-18T00:39:37.358Z,96087.97
2023-02-18T00:42:04.120Z,96091.28
2023-02-18T00:44:30.637Z,96107.59
2023-02-18T00:46:57.389Z,96099.34
2023-02-18T00:49:24.021Z,96094.91
2023-02-18T00:51:50.659Z,96105.78
2023-02-18T00:54:17.250Z,96098.44
2023-02-18T00:56:43.788Z,96100.69
2023-02-18T00:59:10.363Z,96107.44
2023-02-18T01:01:37.579Z,96096.28
2023-02-18T01:04:04.326Z,96103.81
2023-02-18T01:06:31.464Z,96100.81
2023-02-18T01:08:58.093Z,96106.78
2023-02-18T01:11:24.934Z,96098.19
2023-02-18T01:13:52.078Z,96101.34
2023-02-18T01:16:18.825Z,96099.25
2023-02-18T01:18:46.477Z,96086.72
2023-02-18T01:21:13.052Z,96093.44
2023-02-18T01:23:41.263Z,96075.69
2023-02-18T01:26:08.671Z,96074.88
2023-02-18T01:28:37.608Z,96074.41
2023-02-18T01:31:08.780Z,96074.56
2023-02-18T01:33:36.209Z,96077.81
2023-02-18T01:36:03.042Z,96075.97
2023-02-18T01:38:29.654Z,96062.28
2023-02-18T01:40:56.280Z,96056.94
2023-02-18T01:43:23.453Z,96065.41
2023-02-18T01:46:16.766Z,96074.63
2023-02-18T01:48:57.334Z,96069.22
2023-02-18T01:51:35.653Z,96062.25
2023-02-18T01:54:09.372Z,96070.25
2023-02-18T01:56:45.306Z,96062.00
2023-02-18T01:59:16.393Z,96067.63
2023-02-18T02:01:45.706Z,96062.81
2023-02-18T02:04:12.936Z,96071.69
2023-02-18T02:06:41.281Z,96049.94
2023-02-18T02:09:11.395Z,96055.13
2023-02-18T02:12:16.861Z,96059.47
2023-02-18T02:15:18.487Z,96050.13
2023-02-18T02:18:19.256Z,96055.56
2023-02-18T02:21:04.446Z,96052.41
2023-02-18T02:23:48.356Z,96043.09
2023-02-18T02:26:30.127Z,96043.56
2023-02-18T02:33:08.965Z,96049.53
2023-02-18T02:35:44.831Z,96040.22
2023-02-18T02:38:38.613Z,96047.53
2023-02-18T02:41:12.854Z,96035.63
2023-02-18T02:43:56.948Z,96040.88
2023-02-18T02:46:34.421Z,96032.59
2023-02-18T02:49:16.438Z,96030.94
2023-02-18T02:51:52.380Z,96026.16
2023-02-18T02:54:25.103Z,96026.22
2023-02-18T02:57:29.057Z,96028.97
2023-02-18T03:00:12.847Z,96022.91
2023-02-18T03:03:25.859Z,96021.44
2023-02-18T03:06:21.269Z,96013.03
2023-02-18T03:09:10.354Z,96012.66
2023-02-18T03:12:03.401Z,96016.09
2023-02-18T03:14:56.748Z,96011.47
2023-02-18T03:17:33.566Z,96013.50
2023-02-18T03:20:17.660Z,96024.34
2023-02-18T03:22:48.692Z,96011.81
2023-02-18T03:25:17.013Z,96016.66
2023-02-18T03:27:52.280Z,96013.00
2023-02-18T03:30:43.579Z,96021.38
2023-02-18T03:33:15.982Z,96019.81
2023-02-18T03:35:45.266Z,96018.44
2023-02-18T03:38:18.707Z,96020.28
2023-02-18T03:40:45.600Z,96011.03
2023-02-18T03:43:12.576Z,96008.75
2023-02-18T03:45:39.368Z,96006.72
2023-02-18T03:48:06.149Z,96009.38
2023-02-18T03:50:32.696Z,96008.00
2023-02-18T03:52:59.261Z,96011.66
2023-02-18T03:55:26.952Z,96012.53
2023-02-18T03:57:53.657Z,96006.06
2023-02-18T04:00:20.602Z,96008.41
2023-02-18T04:02:47.142Z,96001.47
2023-02-18T04:05:13.709Z,96007.72
2023-02-18T04:07:40.264Z,96009.41
2023-02-18T04:10:08.390Z,96006.41
2023-02-18T04:12:34.982Z,96009.34
2023-02-18T04:15:01.510Z,96002.06
2023-02-18T04:17:28.051Z,96007.22
2023-02-18T04:19:54.600Z,96012.19
2023-02-18T04:22:21.158Z,96009.22
2023-02-18T04:24:47.682Z,96004.91
2023-02-18T04:27:14.567Z,96003.44
2023-02-18T04:29:41.324Z,96003.41
2023-02-18T04:32:07.927Z,96006.16
2023-02-18T04:34:34.559Z,96009.66
2023-02-18T04:37:01.112Z,96007.19
2023-02-18T04:39:27.640Z,96003.28
2023-02-18T04:41:54.218Z,96010.09
2023-02-18T04:44:20.757Z,96013.69
2023-02-18T04:46:47.756Z,96010.84
2023-02-18T04:49:14.312Z,96016.97
2023-02-18T04:51:40.885Z,96010.50
2023-02-18T04:54:07.395Z,96014.97
2023-02-18T04:56:33.940Z,96016.41
2023-02-18T04:59:00.468Z,96023.50
2023-02-18T05:01:27.030Z,96017.84
2023-02-18T05:03:53.637Z,95999.94
2023-02-18T05:06:20.213Z,96019.38
2023-02-18T05:08:46.739Z,96017.78
2023-02-18T05:11:13.273Z,96019.25
2023-02-18T05:13:39.872Z,96012.34
2023-02-18T05:16:07.006Z,96011.97
2023-02-18T05:18:33.788Z,95998.13
2023-02-18T05:21:00.375Z,95991.66
2023-02-18T05:23:27.265Z,96000.41
2023-02-18T05:25:55.191Z,95996.72
2023-02-18T05:28:22.287Z,95999.16
2023-02-18T05:30:48.850Z,95983.28
2023-02-18T05:33:15.466Z,95982.91
2023-02-18T05:35:42.036Z,95991.38
2023-02-18T05:38:08.667Z,95992.66
2023-02-18T05:40:35.342Z,95998.09
2023-02-18T05:43:01.857Z,95996.72
2023-02-18T05:45:28.489Z,96005.66
2023-02-18T05:47:55.014Z,95994.81
2023-02-18T05:50:21.552Z,95986.91
2023-02-18T05:52:48.239Z,95994.72
2023-02-18T05:55:14.796Z,95993.63
2023-02-18T05:57:41.707Z,95995.28
2023-02-18T06:00:11.548Z,96002.31
2023-02-18T06:02:38.226Z,96000.84
2023-02-18T06:05:05.824Z,95989.72
2023-02-18T06:07:32.352Z,95995.66
2023-02-18T06:09:58.961Z,95997.41
2023-02-18T06:12:25.629Z,95992.53
2023-02-18T06:14:52.200Z,96000.00
2023-02-18T06:17:18.850Z,96001.47
2023-02-18T06:19:45.999Z,95997.94
2023-02-18T06:22:12.742Z,96010.97
2023-02-18T06:24:39.638Z,96000.94
2023-02-18T06:27:06.631Z,96000.66
2023-02-18T06:29:33.243Z,96006.84
2023-02-18T06:32:00.024Z,96013.44
2023-02-18T06:34:27.812Z,96016.44
2023-02-18T06:36:54.365Z,96026.38
2023-02-18T06:39:20.969Z,96025.75
2023-02-18T06:41:47.556Z,96019.03
2023-02-18T06:44:16.806Z,96013.41
2023-02-18T06:46:44.012Z,96012.44
2023-02-18T06:49:10.636Z,96020.78
2023-02-18T06:51:37.252Z,96018.78
2023-02-18T06:54:04.245Z,96017.91
2023-02-18T06:56:31.088Z,95997.69
2023-02-18T06:58:57.835Z,96025.59
2023-02-18T07:01:24.396Z,96017.38
2023-02-18T07:03:50.915Z,96004.41
2023-02-18T07:06:17.538Z,96017.88
2023-02-18T07:08:44.339Z,96015.72
2023-02-18T07:11:10.926Z,96014.81
2023-02-18T07:13:37.478Z,95996.72
2023-02-18T07:16:04.201Z,96007.69
2023-02-18T07:18:30.776Z,96018.72
2023-02-18T07:20:57.367Z,96010.88
2023-02-18T07:23:24.000Z,96003.88
2023-02-18T07:25:50.504Z,96003.63
2023-02-18T07:28:17.444Z,96010.41
2023-02-18T07:30:43.969Z,96003.72
2023-02-18T07:33:10.570Z,96019.69
2023-02-18T07:35:37.093Z,96027.16
2023-02-18T07:38:04.445Z,96030.50
2023-02-18T07:40:31.050Z,96024.75
2023-02-18T07:42:57.578Z,96023.56
2023-02-18T07:45:24.280Z,96017.16
2023-02-18T07:47:50.891Z,96013.91
2023-02-18T07:50:17.553Z,96011.56
2023-02-18T07:52:44.142Z,96002.53
2023-02-18T07:55:10.702Z,96004.41
2023-02-18T07:57:57.185Z,96008.34
2023-02-18T08:00:24.618Z,96011.41
2023-02-18T08:02:51.304Z,96010.31
2023-02-18T08:05:17.902Z,96022.34
2023-02-18T08:07:44.587Z,95996.34
2023-02-18T08:10:11.419Z,95995.97
2023-02-18T08:12:37.964Z,95991.88
2023-02-18T08:15:04.803Z,95989.84
2023-02-18T08:17:31.421Z,95994.16
2023-02-18T08:19:57.959Z,95977.84
2023-02-18T08:22:24.541Z,95977.03
2023-02-18T08:24:51.141Z,95976.53
2023-02-18T08:27:17.739Z,95971.91
2023-02-18T08:29:44.267Z,95961.34
2023-02-18T08:32:10.881Z,95974.03
2023-02-18T08:34:37.595Z,95956.09
2023-02-18T08:37:04.257Z,95961.69
2023-02-18T08:39:39.775Z,95939.16
2023-02-18T08:42:06.738Z,95952.28
2023-02-18T08:44:33.358Z,95942.72
2023-02-18T08:47:00.015Z,95951.97
2023-02-18T08:49:26.586Z,95933.66
2023-02-18T08:51:53.591Z,95927.91
2023-02-18T08:54:20.238Z,95939.75
2023-02-18T08:56:46.831Z,95940.41
2023-02-18T08:59:13.372Z,95940.00
2023-02-18T09:01:40.055Z,95960.03
2023-02-18T09:04:06.694Z,95932.31
2023-02-18T09:06:37.479Z,95934.81
2023-02-18T09:09:04.079Z,95933.47
2023-02-18T09:11:30.625Z,95943.34
2023-02-18T09:13:57.191Z,95933.31
2023-02-18T09:16:26.074Z,95943.31
2023-02-18T09:18:53.994Z,95940.41
2023-02-18T09:21:20.752Z,95943.06
2023-02-18T09:23:47.648Z,95939.41
2023-02-18T09:26:16.945Z,95921.94
2023-02-18T09:28:43.990Z,95932.31
2023-02-18T09:31:17.494Z,95936.78
2023-02-18T09:33:50.651Z,95930.03
2023-02-18T09:36:18.342Z,95939.75
2023-02-18T09:38:45.271Z,95931.16
2023-02-18T09:41:45.361Z,95938.34
2023-02-18T09:44:15.961Z,95940.56
2023-02-18T09:47:03.275Z,95920.78
2023-02-18T09:49:34.401Z,95902.81
2023-02-18T09:52:23.892Z,95890.72
2023-02-18T09:54:51.976Z,95901.09
2023-02-18T09:57:43.750Z,95891.53
2023-02-18T10:00:19.592Z,95883.63
2023-02-18T10:02:58.595Z,95883.09
2023-02-18T10:05:29.345Z,95883.06
2023-02-18T10:08:05.263Z,95872.91
2023-02-18T10:10:42.949Z,95871.75
2023-02-18T10:13:14.576Z,95870.88
2023-02-18T10:15:43.122Z,95868.78
2023-02-18T10:18:26.984Z,95875.13
2023-02-18T10:21:00.918Z,95861.78
2023-02-18T10:23:28.815Z,95838.97
2023-02-18T10:25:57.131Z,95853.41
2023-02-18T10:28:26.029Z,95847.63
2023-02-18T10:31:11.325Z,95838.41
2023-02-18T10:33:59.630Z,95834.44
2023-02-18T10:36:40.885Z,95846.09
2023-02-18T10:39:47.326Z,95836.94
2023-02-18T10:42:35.827Z,95834.59
2023-02-18T10:45:14.489Z,95838.72
2023-02-18T10:48:07.206Z,95821.16
2023-02-18T10:50:37.296Z,95828.19
2023-02-18T10:53:12.698Z,95819.00
2023-02-18T10:55:42.339Z,95822.84
2023-02-18T10:58:47.469Z,95815.53
2023-02-18T11:01:16.888Z,95818.84
2023-02-18T11:03:52.281Z,95826.56
2023-02-18T11:06:31.356Z,95798.22
2023-02-18T11:08:58.658Z,95784.25
2023-02-18T11:11:38.156Z,95778.09
2023-02-18T11:14:07.775Z,95772.25
2023-02-18T11:16:43.676Z,95768.69
2023-02-18T11:19:34.173Z,95759.00
2023-02-18T11:22:23.224Z,95763.84
2023-02-18T11:24:55.998Z,95770.38
2023-02-18T11:27:43.958Z,95764.66
2023-02-18T11:30:30.522Z,95760.94
2023-02-18T11:33:01.235Z,95760.00
2023-02-18T11:35:32.124Z,95747.53
2023-02-18T11:38:00.634Z,95758.09
2023-02-18T11:40:33.685Z,95763.78
2023-02-18T11:43:12.516Z,95767.25
2023-02-18T11:45:39.399Z,95754.50
2023-02-18T11:48:23.182Z,95752.69
2023-02-18T11:50:53.974Z,95739.03
2023-02-18T11:53:30.817Z,95752.63
2023-02-18T11:56:03.104Z,95743.03
2023-02-18T11:58:39.750Z,95739.50
2023-02-18T12:01:28.125Z,95724.09
2023-02-18T12:04:15.699Z,95722.84
2023-02-18T12:07:10.074Z,95747.94
2023-02-18T12:09:43.286Z,95718.78
2023-02-18T12:12:30.230Z,95717.72
2023-02-18T12:14:57.955Z,95703.63
2023-02-18T12:17:39.281Z,95695.06
2023-02-18T12:20:43.145Z,95705.91
2023-02-18T12:23:25.655Z,95687.78
2023-02-18T12:26:10.312Z,95691.56
2023-02-18T12:28:57.894Z,95689.19
2023-02-18T12:31:26.092Z,95684.19
2023-02-18T12:34:27.596Z,95686.75
2023-02-18T12:37:28.790Z,95672.56
2023-02-18T12:40:05.507Z,95668.47
2023-02-18T12:43:02.627Z,95672.53
2023-02-18T12:45:53.917Z,95677.03
2023-02-18T12:48:49.895Z,95678.69
2023-02-18T12:51:28.242Z,95682.66
2023-02-18T12:54:13.148Z,95697.72
2023-02-18T12:56:54.523Z,95694.84
2023-02-18T12:59:39.625Z,95679.50
2023-02-18T13:02:36.816Z,95681.03
2023-02-18T13:05:23.208Z,95685.28
2023-02-18T13:07:55.736Z,95675.19
2023-02-18T13:10:44.038Z,95677.03
2023-02-18T13:13:20.952Z,95697.38
2023-02-18T13:15:59.395Z,95672.59
2023-02-18T13:18:33.636Z,95687.19
2023-02-18T13:21:09.539Z,95657.75
2023-02-18T13:23:59.929Z,95655.72
2023-02-18T13:26:29.531Z,95651.66
2023-02-18T13:29:07.874Z,95651.63
2023-02-18T13:31:52.939Z,95653.97
2023-02-18T13:34:29.084Z,95669.53
2023-02-18T13:37:10.183Z,95658.59
2023-02-18T13:39:37.845Z,95658.78
2023-02-18T13:42:35.409Z,95646.44
2023-02-18T13:45:26.328Z,95654.56
2023-02-18T13:47:54.313Z,95662.88
2023-02-18T13:50:26.876Z,95680.72
2023-02-18T13:53:14.599Z,95655.22
2023-02-18T13:55:59.664Z,95671.28
2023-02-18T13:58:32.812Z,95669.19
2023-02-18T14:01:06.967Z,95642.81
2023-02-18T14:03:49.766Z,95658.91
2023-02-18T14:06:33.395Z,95648.25
2023-02-18T14:09:25.635Z,95651.56
2023-02-18T14:11:57.719Z,95651.84
2023-02-18T14:14:27.244Z,95657.03
2023-02-18T14:17:12.686Z,95653.16
2023-02-18T14:19:39.415Z,95659.16
2023-02-18T14:22:26.563Z,95641.81
2023-02-18T14:25:16.516Z,95641.34
2023-02-18T14:27:43.756Z,95660.72
2023-02-18T14:30:26.703Z,95661.03
2023-02-18T14:32:57.320Z,95657.06
2023-02-18T14:36:05.382Z,95655.69
2023-02-18T14:39:09.079Z,95657.75
2023-02-18T14:41:47.317Z,95659.44
2023-02-18T14:44:43.428Z,95641.63
2023-02-18T14:47:34.378Z,95655.69
2023-02-18T14:50:04.977Z,95654.41
2023-02-18T14:52:57.431Z,95656.34
2023-02-18T14:55:25.986Z,95635.22
2023-02-18T14:58:05.873Z,95646.81
2023-02-18T15:00:40.938Z,95649.50
2023-02-18T15:03:17.269Z,95664.88
2023-02-18T15:05:45.968Z,95647.38
2023-02-18T15:08:20.770Z,95661.41
2023-02-18T15:10:53.102Z,95662.44
2023-02-18T15:13:27.353Z,95656.03
2023-02-18T15:15:57.773Z,95652.09
2023-02-18T15:18:34.797Z,95641.69
2023-02-18T15:21:02.951Z,95644.94
2023-02-18T15:23:30.612Z,95653.09
2023-02-18T15:25:58.135Z,95654.47
2023-02-18T15:28:31.493Z,95662.78
2023-02-18T15:31:03.786Z,95667.56
2023-02-18T15:33:30.629Z,95668.66
2023-02-18T15:36:05.951Z,95657.25
2023-02-18T15:38:33.075Z,95686.34
2023-02-18T15:41:00.896Z,95657.22
2023-02-18T15:43:27.548Z,95675.09
2023-02-18T15:45:58.833Z,95663.81
2023-02-18T15:48:46.690Z,95672.75
2023-02-18T15:51:18.138Z,95683.81
2023-02-18T15:53:52.387Z,95663.63
2023-02-18T15:56:31.016Z,95660.59
2023-02-18T15:59:24.361Z,95671.47
2023-02-18T16:01:53.802Z,95662.22
2023-02-18T16:04:22.672Z,95669.88
2023-02-18T16:06:54.640Z,95668.81
2023-02-18T16:09:31.788Z,95684.06
2023-02-18T16:12:02.181Z,95671.06
2023-02-18T16:14:34.172Z,95685.13
2023-02-18T16:17:12.770Z,95679.09
2023-02-18T16:20:03.363Z,95669.16
2023-02-18T16:22:31.175Z,95684.50
2023-02-18T16:25:14.696Z,95679.84
2023-02-18T16:27:52.629Z,95677.94
2023-02-18T16:30:28.893Z,95693.22
2023-02-18T16:32:57.898Z,95686.59
2023-02-18T16:35:27.809Z,95678.47
2023-02-18T16:37:57.625Z,95684.88
2023-02-18T16:40:26.628Z,95684.34
2023-02-18T16:42:54.504Z,95689.78
2023-02-18T16:45:26.772Z,95684.13
2023-02-18T16:47:53.461Z,95688.34
2023-02-18T16:50:21.893Z,95678.97
2023-02-18T16:52:49.347Z,95682.66
2023-02-18T16:55:21.799Z,95683.06
2023-02-18T16:57:48.517Z,95692.53
2023-02-18T17:00:17.917Z,95682.34
2023-02-18T17:02:48.230Z,95685.03
2023-02-18T17:05:27.883Z,95688.31
2023-02-18T17:07:55.736Z,95686.81
2023-02-18T17:10:22.409Z,95686.13
2023-02-18T17:12:48.957Z,95681.75
2023-02-18T17:15:29.407Z,95683.06
2023-02-18T17:17:59.105Z,95686.16
2023-02-18T17:20:32.181Z,95677.31
2023-02-18T17:22:59.638Z,95700.41
2023-02-18T17:25:33.469Z,95693.75
2023-02-18T17:28:00.735Z,95702.75
2023-02-18T17:30:29.197Z,95698.66
2023-02-18T17:32:55.826Z,95702.50
2023-02-18T17:35:23.861Z,95713.28
2023-02-18T17:37:50.547Z,95704.06
2023-02-18T17:40:25.891Z,95721.91
2023-02-18T17:42:54.699Z,95717.53
2023-02-18T17:45:39.977Z,95717.34
2023-02-18T17:48:06.548Z,95729.56
2023-02-18T17:50:33.200Z,95723.53
2023-02-18T17:52:59.821Z,95728.56
2023-02-18T17:55:29.655Z,95728.53
2023-02-18T17:57:56.941Z,95727.06
2023-02-18T18:00:26.917Z,95726.97
2023-02-18T18:02:53.843Z,95726.34
2023-02-18T18:05:23.839Z,95733.00
2023-02-18T18:07:51.746Z,95739.19
2023-02-18T18:10:21.937Z,95743.25
2023-02-18T18:12:49.796Z,95741.97
2023-02-18T18:15:29.286Z,95746.28
2023-02-18T18:17:57.447Z,95746.31
2023-02-18T18:20:26.651Z,95749.56
2023-02-18T18:22:55.160Z,95738.53
2023-02-18T18:25:26.084Z,95739.97
2023-02-18T18:27:53.716Z,95746.44
2023-02-18T18:30:23.357Z,95736.69
2023-02-18T18:32:50.421Z,95743.78
2023-02-18T18:35:29.572Z,95743.22
2023-02-18T18:37:56.791Z,95739.19
2023-02-18T18:40:26.856Z,95737.44
2023-02-18T18:42:56.241Z,95728.53
2023-02-18T18:45:28.419Z,95722.81
2023-02-18T18:47:55.306Z,95719.25
2023-02-18T18:50:23.178Z,95717.47
2023-02-18T18:52:50.837Z,95709.91
2023-02-18T18:55:25.595Z,95717.06
2023-02-18T18:57:52.626Z,95712.13
2023-02-18T19:00:26.206Z,95719.84
2023-02-18T19:02:52.779Z,95690.22
2023-02-18T19:05:34.684Z,95712.09
2023-02-18T19:08:02.493Z,95709.84
2023-02-18T19:10:35.564Z,95700.53
2023-02-18T19:13:04.515Z,95713.59
2023-02-18T19:15:31.439Z,95715.84
2023-02-18T19:17:58.018Z,95715.19
2023-02-18T19:20:28.663Z,95712.31
2023-02-18T19:22:55.283Z,95721.13
2023-02-18T19:25:22.315Z,95728.75
2023-02-18T19:27:50.825Z,95720.47
2023-02-18T19:30:23.779Z,95717.84
2023-02-18T19:32:52.431Z,95724.53
2023-02-18T19:35:19.335Z,95716.19
2023-02-18T19:37:46.118Z,95717.50
2023-02-18T19:40:16.312Z,95721.91
2023-02-18T19:42:42.920Z,95709.69
2023-02-18T19:45:09.976Z,95727.53
2023-02-18T19:47:36.851Z,95725.09
2023-02-18T19:50:04.972Z,95728.09
2023-02-18T19:52:31.648Z,95736.69
2023-02-18T19:54:58.179Z,95747.47
2023-02-18T19:57:25.273Z,95739.34
2023-02-18T19:59:51.918Z,95738.31
2023-02-18T20:02:23.957Z,95747.09
2023-02-18T20:04:50.747Z,95754.31
2023-02-18T20:07:19.896Z,95759.84
2023-02-18T20:09:46.451Z,95756.84
2023-02-18T20:12:13.348Z,95759.66
2023-02-18T20:14:40.562Z,95762.09
2023-02-18T20:17:07.151Z,95759.84
2023-02-18T20:19:34.701Z,95767.19
2023-02-18T20:22:02.113Z,95766.34
2023-02-18T20:24:30.736Z,95769.47
2023-02-18T20:26:58.270Z,95774.63
2023-02-18T20:29:25.678Z,95774.59
2023-02-18T20:31:53.923Z,95777.69
2023-02-18T20:34:20.640Z,95777.34
2023-02-18T20:36:49.696Z,95773.66
2023-02-18T20:39:17.747Z,95779.66
2023-02-18T20:41:45.332Z,95764.34
2023-02-18T20:44:12.599Z,95765.59
2023-02-18T20:46:39.915Z,95766.59
2023-02-18T20:49:08.508Z,95778.53
2023-02-18T20:51:35.539Z,95783.81
2023-02-18T20:54:09.745Z,95773.19
2023-02-18T20:56:37.807Z,95770.34
2023-02-18T20:59:05.723Z,95772.16
2023-02-18T21:01:32.636Z,95768.19
2023-02-18T21:03:59.373Z,95769.22
2023-02-18T21:06:26.051Z,95772.31
2023-02-18T21:08:54.124Z,95769.28
2023-02-18T21:11:23.479Z,95772.81
2023-02-18T21:13:51.419Z,95771.09
2023-02-18T21:16:19.208Z,95769.75
2023-02-18T21:18:46.404Z,95767.75
2023-02-18T21:21:13.386Z,95774.16
2023-02-18T21:23:40.975Z,95774.59
2023-02-18T21:26:09.963Z,95765.53
2023-02-18T21:28:37.679Z,95765.91
2023-02-18T21:31:05.062Z,95765.31
2023-02-18T21:33:31.606Z,95770.41
2023-02-18T21:36:01.256Z,95763.66
2023-02-18T21:38:27.776Z,95777.09
2023-02-18T21:40:54.300Z,95764.78
2023-02-18T21:43:20.828Z,95767.31
2023-02-18T21:45:47.361Z,95764.94
2023-02-18T21:48:32.484Z,95764.44
2023-02-18T21:51:02.299Z,95759.06
2023-02-18T21:53:28.894Z,95764.88
2023-02-18T21:56:03.667Z,95764.19
2023-02-18T21:58:30.475Z,95766.84
2023-02-18T22:00:58.205Z,95758.50
2023-02-18T22:03:24.916Z,95763.63
2023-02-18T22:05:51.510Z,95766.63
2023-02-18T22:08:18.157Z,95763.97
2023-02-18T22:10:44.697Z,95754.44
2023-02-18T22:13:11.336Z,95761.66
2023-02-18T22:15:39.213Z,95755.97
2023-02-18T22:18:07.615Z,95757.41
2023-02-18T22:20:34.177Z,95762.72
2023-02-18T22:23:00.733Z,95760.22
2023-02-18T22:25:27.301Z,95761.47
2023-02-18T22:27:53.860Z,95753.22
2023-02-18T22:30:20.549Z,95751.94
2023-02-18T22:32:47.103Z,95755.97
2023-02-18T22:35:15.616Z,95754.94
2023-02-18T22:37:43.187Z,95767.88
2023-02-18T22:40:10.117Z,95760.06
2023-02-18T22:42:36.670Z,95761.03
2023-02-18T22:45:03.796Z,95746.41
2023-02-18T22:47:30.500Z,95744.75
2023-02-18T22:49:57.058Z,95748.16
2023-02-18T22:52:23.625Z,95753.25
2023-02-18T22:54:50.145Z,95756.00
2023-02-18T22:57:16.671Z,95759.69
2023-02-18T22:59:43.205Z,95750.34
2023-02-18T23:02:10.317Z,95742.94
2023-02-18T23:04:39.512Z,95750.72
2023-02-18T23:07:06.108Z,95743.88
2023-02-18T23:09:32.788Z,95740.69
2023-02-18T23:11:59.474Z,95744.22
2023-02-18T23:14:28.071Z,95747.03
2023-02-18T23:17:15.155Z,95736.88
2023-02-18T23:19:45.927Z,95739.31
2023-02-18T23:22:14.865Z,95739.88
2023-02-18T23:24:44.093Z,95737.13
2023-02-18T23:27:13.747Z,95738.00
2023-02-18T23:29:40.380Z,95737.69
2023-02-18T23:32:07.154Z,95734.28
2023-02-18T23:34:33.890Z,95727.63
2023-02-18T23:37:00.665Z,95731.63
2023-02-18T23:39:27.826Z,95732.94
2023-02-18T23:41:54.431Z,95736.25
2023-02-18T23:44:23.225Z,95734.81
2023-02-18T23:46:51.349Z,95737.69
2023-02-18T23:49:22.030Z,95723.91
2023-02-18T23:51:50.172Z,95719.84
2023-02-18T23:54:16.760Z,95712.78
2023-02-18T23:56:43.849Z,95716.72
2023-02-18T23:59:11.477Z,95717.66
